Time;durP1;ratioP1;P1;durP2;ratioP2;P2;SDS_P1;SDS_P2;PMS_P1;PMS_P2;Temp;Humidity;BMP_temperature;BMP_pressure;BME280_temperature;BME280_humidity;BME280_pressure;Samples;Min_cycle;Max_cycle;Signal;HPM_P1;HPM_P2
2022/04/30 00:00:20;;;;;;;10.07;9.18;;;;;;;;;;5084470;28;24511;-45
2022/04/30 00:02:45;;;;;;;10.93;9.90;;;;;;;;;;5085082;28;24422;-45
2022/04/30 00:05:10;;;;;;;10.73;9.73;;;;;;;;;;5086309;28;24499;-46
2022/04/30 00:07:36;;;;;;;10.80;9.80;;;;;;;;;;5083117;28;24507;-45
2022/04/30 00:10:02;;;;;;;10.70;9.70;;;;;;;;;;5086358;28;24960;-46
2022/04/30 00:12:28;;;;;;;10.33;9.33;;;;;;;;;;5085504;28;24970;-47
2022/04/30 00:14:54;;;;;;;10.05;9.15;;;;;;;;;;5083976;28;24402;-46
2022/04/30 00:17:19;;;;;;;10.15;9.25;;;;;;;;;;5084939;28;24425;-46
2022/04/30 00:19:44;;;;;;;9.80;8.90;;;;;;;;;;5082623;28;24726;-46
2022/04/30 00:22:10;;;;;;;10.60;9.63;;;;;;;;;;5085222;28;24426;-46
2022/04/30 00:24:41;;;;;;;9.30;8.50;;;;;;;;;;5082580;28;24778;-46
2022/04/30 00:27:06;;;;;;;9.70;8.90;;;;;;;;;;5084445;28;24410;-46
2022/04/30 00:29:31;;;;;;;9.90;9.07;;;;;;;;;;5083681;28;24441;-47
2022/04/30 00:31:57;;;;;;;10.23;9.23;;;;;;;;;;5082868;28;24438;-46
2022/04/30 00:34:22;;;;;;;11.37;9.77;;;;;;;;;;5084604;28;24514;-47
2022/04/30 00:36:48;;;;;;;10.17;9.17;;;;;;;;;;5074404;28;24437;-47
2022/04/30 00:39:13;;;;;;;9.77;8.77;;;;;;;;;;5084955;28;24428;-47
2022/04/30 00:41:42;;;;;;;8.77;7.97;;;;;;;;;;5084605;28;24632;-47
2022/04/30 00:44:07;;;;;;;11.00;9.05;;;;;;;;;;5086351;28;24513;-46
2022/04/30 00:46:32;;;;;;;10.25;9.35;;;;;;;;;;5085252;28;24522;-47
2022/04/30 00:48:58;;;;;;;9.45;8.50;;;;;;;;;;5082232;28;24433;-46
2022/04/30 00:51:26;;;;;;;10.10;9.20;;;;;;;;;;5082390;28;24426;-46
2022/04/30 00:53:52;;;;;;;8.90;8.00;;;;;;;;;;5084785;28;24445;-46
2022/04/30 00:56:18;;;;;;;8.85;8.05;;;;;;;;;;5085477;28;25032;-46
2022/04/30 00:58:45;;;;;;;9.80;8.90;;;;;;;;;;5084353;28;24438;-46
2022/04/30 01:01:10;;;;;;;9.68;8.77;;;;;;;;;;5082245;28;24433;-47
2022/04/30 01:03:36;;;;;;;11.00;9.00;;;;;;;;;;5081921;28;24422;-47
2022/04/30 01:06:02;;;;;;;10.52;9.18;;;;;;;;;;5085117;28;24831;-47
2022/04/30 01:08:28;;;;;;;9.20;8.30;;;;;;;;;;5086363;28;24434;-47
2022/04/30 01:10:54;;;;;;;8.73;7.82;;;;;;;;;;5081864;28;24971;-47
2022/04/30 01:13:20;;;;;;;10.65;9.48;;;;;;;;;;5085043;28;24430;-47
2022/04/30 01:15:45;;;;;;;9.27;8.37;;;;;;;;;;5083719;28;24503;-47
2022/04/30 01:18:10;;;;;;;9.60;8.70;;;;;;;;;;5083435;28;25259;-47
2022/04/30 01:20:37;;;;;;;10.17;9.20;;;;;;;;;;5084065;28;24434;-47
2022/04/30 01:23:03;;;;;;;9.15;8.35;;;;;;;;;;5082984;28;24422;-47
2022/04/30 01:25:30;;;;;;;9.60;8.70;;;;;;;;;;5083674;28;24517;-47
2022/04/30 01:27:56;;;;;;;9.88;8.98;;;;;;;;;;5083142;28;24467;-46
2022/04/30 01:30:22;;;;;;;10.10;9.10;;;;;;;;;;5082863;28;24446;-47
2022/04/30 01:38:15;;;;;;;9.80;9.00;;;;;;;;;;5084515;28;24434;-47
2022/04/30 01:40:40;;;;;;;9.80;8.60;;;;;;;;;;5082692;28;24442;-47
2022/04/30 01:43:07;;;;;;;9.40;8.50;;;;;;;;;;5084156;28;24418;-47
2022/04/30 01:45:33;;;;;;;9.23;8.43;;;;;;;;;;5083694;28;24410;-47
2022/04/30 01:47:59;;;;;;;9.20;8.30;;;;;;;;;;5082355;28;24425;-47
2022/04/30 01:50:24;;;;;;;9.25;8.45;;;;;;;;;;5080975;28;24425;-47
2022/04/30 01:52:50;;;;;;;9.07;8.17;;;;;;;;;;5082871;28;24487;-47
2022/04/30 01:55:15;;;;;;;9.30;8.30;;;;;;;;;;5084077;28;24421;-47
2022/04/30 01:57:41;;;;;;;9.00;8.20;;;;;;;;;;5080183;28;24430;-47
2022/04/30 02:00:08;;;;;;;9.50;8.60;;;;;;;;;;5081742;28;24433;-47
2022/04/30 02:02:36;;;;;;;8.70;8.00;;;;;;;;;;5081553;28;24785;-47
2022/04/30 02:05:03;;;;;;;10.00;9.10;;;;;;;;;;5078734;28;24418;-47
2022/04/30 02:07:29;;;;;;;9.00;8.20;;;;;;;;;;5071316;28;24435;-47
2022/04/30 02:09:55;;;;;;;9.40;8.50;;;;;;;;;;5081233;28;24422;-47
2022/04/30 02:12:20;;;;;;;9.18;8.38;;;;;;;;;;5081742;28;24428;-47
2022/04/30 02:14:48;;;;;;;8.73;7.90;;;;;;;;;;5084755;28;24416;-46
2022/04/30 02:17:13;;;;;;;9.77;8.88;;;;;;;;;;5081997;28;24450;-48
2022/04/30 02:22:24;;;;;;;10.90;9.10;;;;;;;;;;5078692;28;25026;-47
2022/04/30 02:24:49;;;;;;;9.00;8.10;;;;;;;;;;5082060;28;24426;-45
2022/04/30 02:27:14;;;;;;;8.77;7.97;;;;;;;;;;5079053;28;24464;-46
2022/04/30 02:29:40;;;;;;;8.80;8.00;;;;;;;;;;5083212;28;24434;-46
2022/04/30 02:32:05;;;;;;;9.70;8.80;;;;;;;;;;5083058;28;24781;-46
2022/04/30 02:34:31;;;;;;;8.23;7.43;;;;;;;;;;5087602;28;24483;-46
2022/04/30 02:36:56;;;;;;;8.40;7.70;;;;;;;;;;5081006;28;24835;-46
2022/04/30 02:39:21;;;;;;;7.95;7.35;;;;;;;;;;5087961;28;24483;-46
2022/04/30 02:41:47;;;;;;;8.47;7.57;;;;;;;;;;5083918;28;24430;-46
2022/04/30 02:44:13;;;;;;;8.60;7.70;;;;;;;;;;5085442;28;24421;-46
2022/04/30 02:46:38;;;;;;;9.20;8.35;;;;;;;;;;5084478;28;24853;-46
2022/04/30 02:49:04;;;;;;;9.80;8.80;;;;;;;;;;5085077;28;24426;-46
2022/04/30 02:51:29;;;;;;;8.60;7.80;;;;;;;;;;5083018;28;24449;-46
2022/04/30 02:53:54;;;;;;;8.85;7.82;;;;;;;;;;5085814;28;24434;-46
2022/04/30 02:56:20;;;;;;;8.83;8.13;;;;;;;;;;5082520;28;24422;-45
2022/04/30 03:01:29;;;;;;;8.13;7.43;;;;;;;;;;5085984;28;24424;-46
2022/04/30 03:03:55;;;;;;;8.47;7.57;;;;;;;;;;5086968;28;24521;-46
2022/04/30 03:06:20;;;;;;;9.07;8.27;;;;;;;;;;5087614;28;25016;-46
2022/04/30 03:08:48;;;;;;;8.80;8.00;;;;;;;;;;5087929;28;24494;-46
2022/04/30 03:11:13;;;;;;;9.82;8.90;;;;;;;;;;5088437;28;25013;-46
2022/04/30 03:13:39;;;;;;;9.67;8.67;;;;;;;;;;5083364;28;24517;-46
2022/04/30 03:21:42;;;;;;;9.27;8.47;;;;;;;;;;5086965;28;24605;-46
2022/04/30 03:24:07;;;;;;;9.80;8.90;;;;;;;;;;5076738;28;24430;-46
2022/04/30 03:26:32;;;;;;;9.70;8.80;;;;;;;;;;5086425;28;25006;-46
2022/04/30 03:28:57;;;;;;;10.53;9.43;;;;;;;;;;5086256;28;24844;-46
2022/04/30 03:31:23;;;;;;;9.30;8.40;;;;;;;;;;5087428;28;24530;-47
2022/04/30 03:33:50;;;;;;;9.65;8.75;;;;;;;;;;5082542;28;24995;-46
2022/04/30 03:36:18;;;;;;;9.07;8.27;;;;;;;;;;5087193;28;24425;-46
2022/04/30 03:38:44;;;;;;;9.43;8.63;;;;;;;;;;5080313;28;24988;-46
2022/04/30 03:41:09;;;;;;;9.53;8.73;;;;;;;;;;5086237;28;24972;-46
2022/04/30 03:43:34;;;;;;;10.00;9.00;;;;;;;;;;5080443;28;24418;-47
2022/04/30 03:45:59;;;;;;;10.73;8.70;;;;;;;;;;5086855;28;24422;-46
2022/04/30 03:48:25;;;;;;;10.00;9.00;;;;;;;;;;5086468;28;24789;-46
2022/04/30 03:50:50;;;;;;;9.77;8.77;;;;;;;;;;5086626;28;25413;-46
2022/04/30 03:53:15;;;;;;;9.83;8.93;;;;;;;;;;5080273;28;24823;-47
2022/04/30 03:55:40;;;;;;;10.57;9.57;;;;;;;;;;5087211;28;24434;-46
2022/04/30 03:58:05;;;;;;;9.60;8.70;;;;;;;;;;5081956;28;24517;-46
2022/04/30 04:00:30;;;;;;;10.60;9.17;;;;;;;;;;5085209;28;24433;-47
2022/04/30 04:02:56;;;;;;;9.97;9.07;;;;;;;;;;5084776;28;24418;-47
2022/04/30 04:05:21;;;;;;;10.30;9.30;;;;;;;;;;5085890;28;24997;-47
2022/04/30 04:07:46;;;;;;;10.13;9.23;;;;;;;;;;5083630;28;25025;-47
2022/04/30 04:10:12;;;;;;;10.60;9.60;;;;;;;;;;5081710;28;25312;-46
2022/04/30 04:12:38;;;;;;;10.50;9.50;;;;;;;;;;5083268;28;24513;-47
2022/04/30 04:17:48;;;;;;;9.57;8.68;;;;;;;;;;5086681;28;24449;-47
2022/04/30 04:20:13;;;;;;;9.80;8.90;;;;;;;;;;5085752;28;24438;-46
2022/04/30 04:22:39;;;;;;;9.50;8.70;;;;;;;;;;5083525;28;24418;-47
2022/04/30 04:27:53;;;;;;;10.00;8.90;;;;;;;;;;5083669;28;24795;-46
2022/04/30 04:30:19;;;;;;;9.40;8.50;;;;;;;;;;5082381;28;24479;-46
2022/04/30 04:32:44;;;;;;;9.37;8.47;;;;;;;;;;5085271;28;24450;-46
2022/04/30 04:35:09;;;;;;;11.25;9.82;;;;;;;;;;5085118;28;24513;-46
2022/04/30 04:37:34;;;;;;;9.52;8.50;;;;;;;;;;5082344;28;24568;-46
2022/04/30 04:39:59;;;;;;;10.43;9.10;;;;;;;;;;5084386;28;24448;-46
2022/04/30 04:42:24;;;;;;;9.02;8.23;;;;;;;;;;5080127;28;24540;-46
2022/04/30 04:44:49;;;;;;;9.83;8.70;;;;;;;;;;5082852;28;24414;-47
2022/04/30 04:47:15;;;;;;;11.02;9.75;;;;;;;;;;5082539;28;24444;-46
2022/04/30 04:49:40;;;;;;;9.63;8.63;;;;;;;;;;5086532;28;24468;-46
2022/04/30 04:52:07;;;;;;;9.80;8.80;;;;;;;;;;5086311;28;24460;-46
2022/04/30 04:54:33;;;;;;;10.07;9.07;;;;;;;;;;5081324;28;24445;-46
2022/04/30 04:56:58;;;;;;;10.50;9.50;;;;;;;;;;5084943;28;24437;-46
2022/04/30 04:59:23;;;;;;;10.68;9.68;;;;;;;;;;5078411;28;25043;-45
2022/04/30 05:01:48;;;;;;;9.87;8.97;;;;;;;;;;5085199;28;24527;-47
2022/04/30 05:04:14;;;;;;;9.40;8.50;;;;;;;;;;5084026;28;24777;-47
2022/04/30 05:06:39;;;;;;;9.50;8.60;;;;;;;;;;5080803;28;24414;-47
2022/04/30 05:09:04;;;;;;;9.10;8.30;;;;;;;;;;5079862;28;24433;-46
2022/04/30 05:11:29;;;;;;;9.90;8.90;;;;;;;;;;5087227;28;24421;-46
2022/04/30 05:13:55;;;;;;;9.93;9.03;;;;;;;;;;5085046;28;24456;-47
2022/04/30 05:16:20;;;;;;;9.40;8.50;;;;;;;;;;5079349;28;24987;-46
2022/04/30 05:18:45;;;;;;;9.60;8.70;;;;;;;;;;5079540;28;24422;-46
2022/04/30 05:21:10;;;;;;;9.23;8.33;;;;;;;;;;5082342;28;24423;-46
2022/04/30 05:23:36;;;;;;;10.03;9.13;;;;;;;;;;5081941;28;25077;-46
2022/04/30 05:26:02;;;;;;;10.23;9.32;;;;;;;;;;5073638;28;24476;-46
2022/04/30 05:28:27;;;;;;;10.10;8.75;;;;;;;;;;5084042;28;25061;-47
2022/04/30 05:30:52;;;;;;;9.60;8.70;;;;;;;;;;5078861;28;24524;-46
2022/04/30 05:33:17;;;;;;;9.57;8.68;;;;;;;;;;5078246;28;24472;-46
2022/04/30 05:35:42;;;;;;;9.88;8.88;;;;;;;;;;5079014;28;24427;-46
2022/04/30 05:38:08;;;;;;;8.88;8.07;;;;;;;;;;5084379;28;24433;-46
2022/04/30 05:40:33;;;;;;;9.68;8.82;;;;;;;;;;5082941;28;25848;-45
2022/04/30 05:42:58;;;;;;;9.40;8.50;;;;;;;;;;5079522;28;24519;-46
2022/04/30 05:45:23;;;;;;;10.25;9.35;;;;;;;;;;5083064;28;24445;-46
2022/04/30 05:47:48;;;;;;;10.10;9.17;;;;;;;;;;5073477;28;24480;-46
2022/04/30 05:50:13;;;;;;;9.38;8.45;;;;;;;;;;5079295;28;24417;-46
2022/04/30 05:52:39;;;;;;;8.67;7.83;;;;;;;;;;5082305;28;24426;-46
2022/04/30 05:55:05;;;;;;;8.90;8.10;;;;;;;;;;5082988;28;24815;-47
2022/04/30 05:57:31;;;;;;;8.93;8.13;;;;;;;;;;5082004;28;24752;-46
2022/04/30 05:59:56;;;;;;;9.13;8.20;;;;;;;;;;5083204;28;24449;-46
2022/04/30 06:02:22;;;;;;;9.60;8.80;;;;;;;;;;5080984;28;24438;-47
2022/04/30 06:04:47;;;;;;;9.50;8.60;;;;;;;;;;5079480;28;24840;-47
2022/04/30 06:07:12;;;;;;;11.17;9.97;;;;;;;;;;5083679;28;24411;-47
2022/04/30 06:09:38;;;;;;;8.87;8.07;;;;;;;;;;5079168;28;24422;-47
2022/04/30 06:12:03;;;;;;;9.30;8.40;;;;;;;;;;5083291;28;24426;-46
2022/04/30 06:14:31;;;;;;;8.90;8.10;;;;;;;;;;5086205;28;24441;-47
2022/04/30 06:16:58;;;;;;;8.80;7.90;;;;;;;;;;5083177;28;24926;-47
2022/04/30 06:19:23;;;;;;;8.80;8.00;;;;;;;;;;5086745;28;24438;-46
2022/04/30 06:21:48;;;;;;;8.50;7.80;;;;;;;;;;5085939;28;24433;-46
2022/04/30 06:24:14;;;;;;;8.60;7.80;;;;;;;;;;5083624;28;24447;-45
2022/04/30 06:26:39;;;;;;;8.10;7.40;;;;;;;;;;5082976;28;24482;-46
2022/04/30 06:29:04;;;;;;;9.00;7.73;;;;;;;;;;5083671;28;24797;-47
2022/04/30 06:31:29;;;;;;;8.43;7.63;;;;;;;;;;5085286;28;24517;-46
2022/04/30 06:33:55;;;;;;;8.70;7.90;;;;;;;;;;5080211;28;24511;-47
2022/04/30 06:36:20;;;;;;;9.30;8.40;;;;;;;;;;5083729;28;24433;-46
2022/04/30 06:38:47;;;;;;;9.07;8.17;;;;;;;;;;5081631;28;24795;-47
2022/04/30 06:41:13;;;;;;;9.10;8.20;;;;;;;;;;5079276;28;24995;-47
2022/04/30 06:43:38;;;;;;;8.30;7.33;;;;;;;;;;5082762;28;24426;-46
2022/04/30 06:46:05;;;;;;;8.45;7.55;;;;;;;;;;5085789;28;24442;-46
2022/04/30 06:48:30;;;;;;;8.40;7.60;;;;;;;;;;5087136;28;24833;-46
2022/04/30 06:50:56;;;;;;;9.40;8.50;;;;;;;;;;5086627;28;25057;-47
2022/04/30 06:58:54;;;;;;;7.83;7.13;;;;;;;;;;5083919;28;24985;-46
2022/04/30 07:01:29;;;;;;;7.25;6.65;;;;;;;;;;5081334;28;24418;-47
2022/04/30 07:04:01;;;;;;;7.30;6.65;;;;;;;;;;5083972;28;24979;-44
2022/04/30 07:06:26;;;;;;;8.20;6.80;;;;;;;;;;5085357;28;24472;-46
2022/04/30 07:08:51;;;;;;;8.50;7.80;;;;;;;;;;5084551;28;24437;-46
2022/04/30 07:11:17;;;;;;;7.80;7.10;;;;;;;;;;5087071;28;24508;-46
2022/04/30 07:13:43;;;;;;;7.50;6.80;;;;;;;;;;5084541;28;24861;-45
2022/04/30 07:16:09;;;;;;;7.40;6.80;;;;;;;;;;5081566;28;25419;-45
2022/04/30 07:18:34;;;;;;;7.18;6.47;;;;;;;;;;5080881;28;24515;-46
2022/04/30 07:20:59;;;;;;;8.35;7.55;;;;;;;;;;5084212;28;24746;-45
2022/04/30 07:23:24;;;;;;;8.13;7.33;;;;;;;;;;5082374;28;24503;-46
2022/04/30 07:25:49;;;;;;;7.28;6.65;;;;;;;;;;5081596;28;24967;-46
2022/04/30 07:28:15;;;;;;;7.00;6.40;;;;;;;;;;5080063;28;24479;-46
2022/04/30 07:30:40;;;;;;;7.07;6.53;;;;;;;;;;5067370;28;25438;-46
2022/04/30 07:33:05;;;;;;;6.90;6.30;;;;;;;;;;5066879;28;24454;-46
2022/04/30 07:35:30;;;;;;;7.37;6.77;;;;;;;;;;5065493;28;24510;-46
2022/04/30 07:37:55;;;;;;;6.50;5.90;;;;;;;;;;5067819;28;25260;-45
2022/04/30 07:40:21;;;;;;;7.65;6.95;;;;;;;;;;5066864;28;24427;-46
2022/04/30 07:42:46;;;;;;;6.80;6.20;;;;;;;;;;5065491;28;25042;-45
2022/04/30 07:45:11;;;;;;;7.20;6.50;;;;;;;;;;5067660;28;24961;-46
2022/04/30 07:47:36;;;;;;;7.40;6.70;;;;;;;;;;5064458;28;24518;-46
2022/04/30 07:50:02;;;;;;;7.33;6.73;;;;;;;;;;5065249;28;24522;-46
2022/04/30 07:52:27;;;;;;;6.90;6.30;;;;;;;;;;5066353;28;24455;-46
2022/04/30 07:54:52;;;;;;;6.50;5.90;;;;;;;;;;5063284;28;24438;-46
2022/04/30 07:57:18;;;;;;;6.20;5.60;;;;;;;;;;5056236;28;24473;-45
2022/04/30 07:59:44;;;;;;;7.90;7.30;;;;;;;;;;5049233;28;24427;-46
2022/04/30 08:02:09;;;;;;;8.43;7.53;;;;;;;;;;5062968;28;24484;-46
2022/04/30 08:04:35;;;;;;;8.37;7.57;;;;;;;;;;5063188;28;24414;-46
2022/04/30 08:07:00;;;;;;;7.90;7.10;;;;;;;;;;5061642;28;24461;-46
2022/04/30 08:09:25;;;;;;;6.40;5.90;;;;;;;;;;5059361;28;24545;-45
2022/04/30 08:11:50;;;;;;;7.40;6.80;;;;;;;;;;5064142;28;25055;-46
2022/04/30 08:14:15;;;;;;;7.60;6.90;;;;;;;;;;5065680;28;25048;-45
2022/04/30 08:16:40;;;;;;;8.80;7.90;;;;;;;;;;5064221;28;24454;-45
2022/04/30 08:19:05;;;;;;;9.17;8.13;;;;;;;;;;5062538;28;24824;-46
2022/04/30 08:21:31;;;;;;;9.77;8.57;;;;;;;;;;5064627;28;24461;-45
2022/04/30 08:23:56;;;;;;;8.73;7.97;;;;;;;;;;5066837;28;24415;-45
2022/04/30 08:26:21;;;;;;;7.47;6.80;;;;;;;;;;5059519;28;24476;-45
2022/04/30 08:28:46;;;;;;;8.20;7.37;;;;;;;;;;5052637;28;24445;-45
2022/04/30 08:31:11;;;;;;;7.93;7.23;;;;;;;;;;5084405;28;24414;-45
2022/04/30 08:33:37;;;;;;;8.80;7.40;;;;;;;;;;5076543;28;24438;-45
2022/04/30 08:36:02;;;;;;;7.63;6.97;;;;;;;;;;5085266;28;25130;-46
2022/04/30 08:38:27;;;;;;;8.83;8.10;;;;;;;;;;5084490;28;24486;-46
2022/04/30 08:40:53;;;;;;;8.25;7.45;;;;;;;;;;5086718;28;24472;-46
2022/04/30 08:43:19;;;;;;;8.05;7.25;;;;;;;;;;5087900;28;24394;-46
2022/04/30 08:45:45;;;;;;;8.38;7.57;;;;;;;;;;5086863;28;24453;-47
2022/04/30 08:48:11;;;;;;;7.97;7.20;;;;;;;;;;5086236;28;24426;-46
2022/04/30 08:50:38;;;;;;;8.38;7.68;;;;;;;;;;5083854;28;25091;-46
2022/04/30 08:53:03;;;;;;;7.40;6.70;;;;;;;;;;5085212;28;24430;-46
2022/04/30 08:55:28;;;;;;;9.20;8.30;;;;;;;;;;5085301;28;24467;-46
2022/04/30 08:57:53;;;;;;;8.20;7.50;;;;;;;;;;5084388;28;24426;-46
2022/04/30 09:00:19;;;;;;;8.00;7.30;;;;;;;;;;5085334;28;24565;-45
2022/04/30 09:02:48;;;;;;;8.68;7.88;;;;;;;;;;5085497;28;24401;-46
2022/04/30 09:05:14;;;;;;;12.43;9.23;;;;;;;;;;5085759;28;24990;-46
2022/04/30 09:07:39;;;;;;;9.60;8.50;;;;;;;;;;5082107;28;24437;-46
2022/04/30 09:10:05;;;;;;;10.23;8.88;;;;;;;;;;5083994;28;24432;-46
2022/04/30 09:12:31;;;;;;;9.32;8.43;;;;;;;;;;5085178;28;25015;-47
2022/04/30 09:14:59;;;;;;;9.20;8.40;;;;;;;;;;5084461;28;24426;-46
2022/04/30 09:17:25;;;;;;;8.60;7.88;;;;;;;;;;5081672;28;24421;-45
2022/04/30 09:19:52;;;;;;;11.07;8.70;;;;;;;;;;5083925;28;24434;-45
2022/04/30 09:22:28;;;;;;;8.18;7.32;;;;;;;;;;5084945;28;24430;-46
2022/04/30 09:24:53;;;;;;;9.20;8.30;;;;;;;;;;5083706;28;24513;-47
2022/04/30 09:27:18;;;;;;;9.20;8.50;;;;;;;;;;5082961;28;24513;-46
2022/04/30 09:29:44;;;;;;;9.70;8.70;;;;;;;;;;5081009;28;24500;-47
2022/04/30 09:32:15;;;;;;;8.30;7.60;;;;;;;;;;5082738;28;24528;-46
2022/04/30 09:37:43;;;;;;;7.50;6.90;;;;;;;;;;5079160;28;24468;-48
2022/04/30 09:40:09;;;;;;;7.93;7.22;;;;;;;;;;5083583;28;24572;-46
2022/04/30 09:42:38;;;;;;;7.10;6.50;;;;;;;;;;5083927;28;24557;-46
2022/04/30 09:45:04;;;;;;;8.30;7.60;;;;;;;;;;5074249;28;25088;-46
2022/04/30 09:47:29;;;;;;;8.52;7.80;;;;;;;;;;5080880;28;24441;-46
2022/04/30 09:55:22;;;;;;;7.70;7.00;;;;;;;;;;5083859;28;24420;-46
2022/04/30 09:57:47;;;;;;;6.93;6.33;;;;;;;;;;5083940;28;24418;-46
2022/04/30 10:00:13;;;;;;;8.80;7.90;;;;;;;;;;5082241;28;24441;-46
2022/04/30 10:02:39;;;;;;;6.90;6.30;;;;;;;;;;5080735;28;24429;-46
2022/04/30 10:05:05;;;;;;;7.90;7.10;;;;;;;;;;5083424;28;24426;-47
2022/04/30 10:07:33;;;;;;;8.30;7.60;;;;;;;;;;5083329;28;24962;-47
2022/04/30 10:10:02;;;;;;;8.02;7.25;;;;;;;;;;5082170;28;24827;-45
2022/04/30 10:12:33;;;;;;;7.20;6.50;;;;;;;;;;5082741;28;24496;-47
2022/04/30 10:14:59;;;;;;;9.32;8.43;;;;;;;;;;5083735;28;24425;-46
2022/04/30 10:17:25;;;;;;;9.50;8.70;;;;;;;;;;5081477;28;24429;-46
2022/04/30 10:20:01;;;;;;;6.90;6.30;;;;;;;;;;5082290;28;24525;-46
2022/04/30 10:22:26;;;;;;;7.60;6.90;;;;;;;;;;5080418;28;24469;-46
2022/04/30 10:24:56;;;;;;;8.90;8.10;;;;;;;;;;5085400;28;24453;-46
2022/04/30 10:27:21;;;;;;;9.13;8.35;;;;;;;;;;5084179;28;24422;-45
2022/04/30 10:29:50;;;;;;;8.85;8.00;;;;;;;;;;5079673;28;24450;-46
2022/04/30 10:32:23;;;;;;;8.50;7.80;;;;;;;;;;5085495;28;24411;-46
2022/04/30 10:34:51;;;;;;;8.98;8.18;;;;;;;;;;5081635;28;24430;-46
2022/04/30 10:37:25;;;;;;;8.10;7.40;;;;;;;;;;5085878;28;24453;-46
2022/04/30 10:40:01;;;;;;;8.45;7.65;;;;;;;;;;5082429;28;24456;-46
2022/04/30 10:42:27;;;;;;;7.97;7.35;;;;;;;;;;5083495;28;24476;-46
2022/04/30 10:44:55;;;;;;;9.80;8.80;;;;;;;;;;5080563;28;24430;-46
2022/04/30 10:47:21;;;;;;;8.48;7.78;;;;;;;;;;5078096;28;24415;-46
2022/04/30 10:49:46;;;;;;;8.90;7.90;;;;;;;;;;5081113;28;24445;-46
2022/04/30 10:52:11;;;;;;;9.43;8.53;;;;;;;;;;5083990;28;24424;-45
2022/04/30 10:54:39;;;;;;;9.57;8.57;;;;;;;;;;5087428;28;24524;-46
2022/04/30 10:57:05;;;;;;;8.90;8.00;;;;;;;;;;5086308;28;24418;-45
2022/04/30 10:59:30;;;;;;;9.10;8.20;;;;;;;;;;5086045;28;24426;-46
2022/04/30 11:01:55;;;;;;;9.27;8.38;;;;;;;;;;5084914;28;25059;-46
2022/04/30 11:04:20;;;;;;;7.73;7.03;;;;;;;;;;5088922;28;25019;-46
2022/04/30 11:06:47;;;;;;;8.40;7.60;;;;;;;;;;5089805;28;24745;-46
2022/04/30 11:09:12;;;;;;;9.63;8.63;;;;;;;;;;5087106;28;24772;-46
2022/04/30 11:11:38;;;;;;;10.50;9.50;;;;;;;;;;5089551;28;24422;-46
2022/04/30 11:14:03;;;;;;;7.40;6.80;;;;;;;;;;5079092;28;24468;-46
2022/04/30 11:16:29;;;;;;;7.28;6.60;;;;;;;;;;5088932;28;25172;-46
2022/04/30 11:19:09;;;;;;;8.48;7.78;;;;;;;;;;5089261;28;24418;-46
2022/04/30 11:21:35;;;;;;;7.00;6.30;;;;;;;;;;5089473;28;24432;-46
2022/04/30 11:24:01;;;;;;;6.93;6.32;;;;;;;;;;5085802;28;24414;-46
2022/04/30 11:26:27;;;;;;;9.85;8.95;;;;;;;;;;5086517;28;24429;-47
2022/04/30 11:28:52;;;;;;;8.60;7.80;;;;;;;;;;5086329;28;24777;-46
2022/04/30 11:31:20;;;;;;;9.50;8.60;;;;;;;;;;5087023;28;24479;-46
2022/04/30 11:33:45;;;;;;;8.00;7.25;;;;;;;;;;5081107;28;24426;-46
2022/04/30 11:36:11;;;;;;;8.70;7.90;;;;;;;;;;5086188;28;24432;-46
2022/04/30 11:38:36;;;;;;;7.80;7.10;;;;;;;;;;5085681;28;24514;-46
2022/04/30 11:41:05;;;;;;;8.80;8.10;;;;;;;;;;5088061;28;24733;-45
2022/04/30 11:43:30;;;;;;;9.45;8.65;;;;;;;;;;5087828;28;24451;-45
2022/04/30 11:45:59;;;;;;;8.73;8.03;;;;;;;;;;5079702;28;24418;-45
2022/04/30 11:48:26;;;;;;;9.20;8.30;;;;;;;;;;5085107;28;24421;-45
2022/04/30 11:50:51;;;;;;;8.88;8.10;;;;;;;;;;5084319;28;24956;-45
2022/04/30 11:53:17;;;;;;;8.98;8.27;;;;;;;;;;5084862;28;24409;-45
2022/04/30 11:55:42;;;;;;;8.70;8.00;;;;;;;;;;5073887;28;24434;-45
2022/04/30 11:58:08;;;;;;;8.40;7.70;;;;;;;;;;5070126;28;24434;-45
2022/04/30 12:00:33;;;;;;;10.23;8.20;;;;;;;;;;5077812;28;24440;-44
2022/04/30 12:02:58;;;;;;;7.60;7.00;;;;;;;;;;5081494;28;24491;-45
2022/04/30 12:05:23;;;;;;;10.10;8.90;;;;;;;;;;5077913;28;24422;-45
2022/04/30 12:07:49;;;;;;;7.70;7.10;;;;;;;;;;5082842;28;24427;-45
2022/04/30 12:10:14;;;;;;;8.65;7.88;;;;;;;;;;5084241;28;24418;-45
2022/04/30 12:12:39;;;;;;;6.93;6.35;;;;;;;;;;5084664;28;24951;-45
2022/04/30 12:15:15;;;;;;;6.70;6.10;;;;;;;;;;5078527;28;24422;-45
2022/04/30 12:17:40;;;;;;;7.80;7.10;;;;;;;;;;5081420;28;24428;-45
2022/04/30 12:25:44;;;;;;;6.97;6.38;;;;;;;;;;5081015;28;24915;-45
2022/04/30 12:28:11;;;;;;;7.50;6.80;;;;;;;;;;5078354;28;24441;-45
2022/04/30 12:30:36;;;;;;;7.40;6.80;;;;;;;;;;5077904;28;24527;-45
2022/04/30 12:33:03;;;;;;;6.97;6.38;;;;;;;;;;5081778;28;24418;-46
2022/04/30 12:35:33;;;;;;;7.57;6.97;;;;;;;;;;5083008;28;24578;-46
2022/04/30 12:38:02;;;;;;;5.82;5.32;;;;;;;;;;5081133;28;24418;-46
2022/04/30 12:40:27;;;;;;;6.20;5.60;;;;;;;;;;5083341;28;24448;-52
2022/04/30 12:42:52;;;;;;;6.90;6.40;;;;;;;;;;5084576;28;24430;-45
2022/04/30 12:45:17;;;;;;;6.67;6.13;;;;;;;;;;5072612;28;24411;-45
2022/04/30 12:47:43;;;;;;;6.70;6.10;;;;;;;;;;5080690;28;24497;-46
2022/04/30 12:50:08;;;;;;;6.73;6.13;;;;;;;;;;5082969;28;24845;-46
2022/04/30 12:52:33;;;;;;;7.57;6.83;;;;;;;;;;5084090;28;24434;-46
2022/04/30 12:54:58;;;;;;;6.15;5.65;;;;;;;;;;5082870;28;24968;-46
2022/04/30 12:57:24;;;;;;;7.60;6.90;;;;;;;;;;5083007;28;25012;-46
2022/04/30 12:59:55;;;;;;;8.40;7.60;;;;;;;;;;5082866;28;24487;-47
2022/04/30 13:02:23;;;;;;;9.43;7.53;;;;;;;;;;5081596;28;24430;-46
2022/04/30 13:04:48;;;;;;;6.78;6.18;;;;;;;;;;5082308;28;24417;-46
2022/04/30 13:07:13;;;;;;;7.10;6.40;;;;;;;;;;5082397;28;24418;-46
2022/04/30 13:15:06;;;;;;;7.45;6.75;;;;;;;;;;5083323;28;25342;-46
2022/04/30 13:17:31;;;;;;;6.87;6.27;;;;;;;;;;5083120;28;24422;-45
2022/04/30 13:19:56;;;;;;;6.27;5.77;;;;;;;;;;5084611;28;24634;-46
2022/04/30 13:22:22;;;;;;;5.20;4.80;;;;;;;;;;5079460;28;24532;-47
2022/04/30 13:24:47;;;;;;;5.40;5.00;;;;;;;;;;5084413;28;24422;-46
2022/04/30 13:27:12;;;;;;;5.38;4.97;;;;;;;;;;5073215;28;24450;-47
2022/04/30 13:29:37;;;;;;;5.10;4.70;;;;;;;;;;5081403;28;25738;-46
2022/04/30 13:32:02;;;;;;;4.88;4.47;;;;;;;;;;5081455;28;24478;-46
2022/04/30 13:34:27;;;;;;;5.20;4.70;;;;;;;;;;5081929;28;25213;-49
2022/04/30 13:36:53;;;;;;;4.40;4.10;;;;;;;;;;5077378;28;24436;-47
2022/04/30 13:39:18;;;;;;;4.80;4.40;;;;;;;;;;5080236;28;24438;-46
2022/04/30 13:41:43;;;;;;;4.50;4.20;;;;;;;;;;5077349;28;24442;-47
2022/04/30 13:44:09;;;;;;;4.80;4.40;;;;;;;;;;5080872;28;24516;-46
2022/04/30 13:46:38;;;;;;;5.80;4.87;;;;;;;;;;5080571;28;24480;-49
2022/04/30 13:49:04;;;;;;;5.90;5.40;;;;;;;;;;5082987;28;25064;-46
2022/04/30 13:51:29;;;;;;;5.10;4.60;;;;;;;;;;5083103;28;24434;-45
2022/04/30 13:53:55;;;;;;;6.10;5.60;;;;;;;;;;5080275;28;24522;-45
2022/04/30 13:56:20;;;;;;;5.80;5.30;;;;;;;;;;5080090;28;24484;-46
2022/04/30 13:58:46;;;;;;;6.80;6.07;;;;;;;;;;5079586;28;24990;-46
2022/04/30 14:01:12;;;;;;;5.78;5.38;;;;;;;;;;5078546;28;24982;-45
2022/04/30 14:03:37;;;;;;;5.67;5.27;;;;;;;;;;5079524;28;24425;-46
2022/04/30 14:06:03;;;;;;;6.35;5.85;;;;;;;;;;5077206;28;24855;-46
2022/04/30 14:08:28;;;;;;;5.73;5.20;;;;;;;;;;5075112;28;24425;-46
2022/04/30 14:10:53;;;;;;;5.20;4.80;;;;;;;;;;5079282;28;24415;-46
2022/04/30 14:16:03;;;;;;;6.40;5.90;;;;;;;;;;5084529;28;24529;-46
2022/04/30 14:18:29;;;;;;;4.90;4.50;;;;;;;;;;5086183;28;24517;-45
2022/04/30 14:20:54;;;;;;;5.10;4.70;;;;;;;;;;5083162;28;24529;-46
2022/04/30 14:23:21;;;;;;;5.30;4.90;;;;;;;;;;5074731;28;24975;-45
2022/04/30 14:25:46;;;;;;;4.45;4.05;;;;;;;;;;5084338;28;24824;-46
2022/04/30 14:28:12;;;;;;;4.30;4.00;;;;;;;;;;5081017;28;24502;-46
2022/04/30 14:30:42;;;;;;;4.60;4.20;;;;;;;;;;5090270;28;24990;-46
2022/04/30 14:33:08;;;;;;;4.45;4.05;;;;;;;;;;5090201;28;24437;-46
2022/04/30 14:35:34;;;;;;;4.78;4.35;;;;;;;;;;5090030;28;24450;-46
2022/04/30 14:37:59;;;;;;;4.87;4.47;;;;;;;;;;5090506;28;24471;-46
2022/04/30 14:40:24;;;;;;;5.18;4.78;;;;;;;;;;5083975;28;24417;-47
2022/04/30 14:42:49;;;;;;;5.18;4.68;;;;;;;;;;5090016;28;24430;-46
2022/04/30 14:45:17;;;;;;;4.57;4.18;;;;;;;;;;5089718;28;24488;-46
2022/04/30 14:47:43;;;;;;;5.30;4.90;;;;;;;;;;5090518;28;24390;-46
2022/04/30 14:50:08;;;;;;;6.20;5.70;;;;;;;;;;5089819;28;24443;-46
2022/04/30 14:52:33;;;;;;;5.67;5.27;;;;;;;;;;5088465;28;24462;-46
2022/04/30 14:54:59;;;;;;;5.07;4.43;;;;;;;;;;5070075;28;24406;-46
2022/04/30 14:57:24;;;;;;;5.80;5.30;;;;;;;;;;5090165;28;24475;-46
2022/04/30 14:59:49;;;;;;;5.50;5.00;;;;;;;;;;5090139;28;24471;-47
2022/04/30 15:02:14;;;;;;;5.90;5.40;;;;;;;;;;5089474;28;24428;-46
2022/04/30 15:04:40;;;;;;;5.50;5.00;;;;;;;;;;5089429;28;24514;-46
2022/04/30 15:07:05;;;;;;;4.60;4.30;;;;;;;;;;5089499;28;24745;-46
2022/04/30 15:09:30;;;;;;;6.10;5.60;;;;;;;;;;5089807;28;24397;-46
2022/04/30 15:11:55;;;;;;;4.97;4.57;;;;;;;;;;5087932;28;24955;-46
2022/04/30 15:14:20;;;;;;;5.70;5.10;;;;;;;;;;5086201;28;24418;-46
2022/04/30 15:16:46;;;;;;;5.50;5.00;;;;;;;;;;5088951;28;24414;-47
2022/04/30 15:19:11;;;;;;;5.90;5.40;;;;;;;;;;5067088;28;24536;-45
2022/04/30 15:21:37;;;;;;;5.47;5.07;;;;;;;;;;5071949;28;24899;-49